sensor_id;sensor_type;location;lat;lon;timestamp;pressure;altitude;pressure_sealevel;temperature;humidity
33185;BME280;19550;42.872;25.494;2023-12-20T00:00:59;96705.28;;;-0.48;100.00
33185;BME280;19550;42.872;25.494;2023-12-20T00:03:26;96684.94;;;-0.74;100.00
33185;BME280;19550;42.872;25.494;2023-12-20T00:05:53;96703.78;;;-0.56;100.00
33185;BME280;19550;42.872;25.494;2023-12-20T00:08:21;96695.84;;;-0.57;100.00
33185;BME280;19550;42.872;25.494;2023-12-20T00:10:47;96698.53;;;-0.74;100.00
33185;BME280;19550;42.872;25.494;2023-12-20T00:13:14;96695.59;;;-0.84;100.00
33185;BME280;19550;42.872;25.494;2023-12-20T00:15:41;96695.13;;;-0.93;100.00
33185;BME280;19550;42.872;25.494;2023-12-20T00:18:09;96689.84;;;-0.99;100.00
33185;BME280;19550;42.872;25.494;2023-12-20T00:20:36;96688.22;;;-1.00;100.00
33185;BME280;19550;42.872;25.494;2023-12-20T00:23:03;96690.44;;;-0.97;100.00
33185;BME280;19550;42.872;25.494;2023-12-20T00:25:30;96686.28;;;-0.88;100.00
33185;BME280;19550;42.872;25.494;2023-12-20T00:27:57;96685.44;;;-0.89;100.00
33185;BME280;19550;42.872;25.494;2023-12-20T00:30:23;96675.94;;;-0.86;100.00
33185;BME280;19550;42.872;25.494;2023-12-20T00:32:52;96672.72;;;-1.00;100.00
33185;BME280;19550;42.872;25.494;2023-12-20T00:35:21;96674.03;;;-0.74;100.00
33185;BME280;19550;42.872;25.494;2023-12-20T00:37:47;96651.09;;;-0.78;100.00
33185;BME280;19550;42.872;25.494;2023-12-20T00:40:14;96658.88;;;-0.70;100.00
33185;BME280;19550;42.872;25.494;2023-12-20T00:42:41;96660.06;;;-0.77;100.00
33185;BME280;19550;42.872;25.494;2023-12-20T00:45:08;96663.38;;;-0.75;100.00
33185;BME280;19550;42.872;25.494;2023-12-20T00:47:35;96630.69;;;-0.92;100.00
33185;BME280;19550;42.872;25.494;2023-12-20T00:50:02;96662.47;;;-0.81;100.00
33185;BME280;19550;42.872;25.494;2023-12-20T00:52:30;96655.06;;;-0.97;100.00
33185;BME280;19550;42.872;25.494;2023-12-20T00:54:57;96655.84;;;-0.85;100.00
33185;BME280;19550;42.872;25.494;2023-12-20T00:57:24;96649.63;;;-0.69;100.00
33185;BME280;19550;42.872;25.494;2023-12-20T00:59:51;96647.69;;;-0.57;100.00
33185;BME280;19550;42.872;25.494;2023-12-20T01:02:18;96641.91;;;-0.60;100.00
33185;BME280;19550;42.872;25.494;2023-12-20T01:04:45;96637.19;;;-0.65;100.00
33185;BME280;19550;42.872;25.494;2023-12-20T01:07:12;96628.84;;;-0.75;100.00
33185;BME280;19550;42.872;25.494;2023-12-20T01:09:40;96628.84;;;-0.75;100.00
33185;BME280;19550;42.872;25.494;2023-12-20T01:12:07;96628.03;;;-0.75;100.00
33185;BME280;19550;42.872;25.494;2023-12-20T01:14:34;96623.56;;;-0.82;100.00
33185;BME280;19550;42.872;25.494;2023-12-20T01:17:01;96618.97;;;-0.93;100.00
33185;BME280;19550;42.872;25.494;2023-12-20T01:19:28;96617.16;;;-1.15;100.00
33185;BME280;19550;42.872;25.494;2023-12-20T01:21:55;96600.91;;;-1.27;100.00
33185;BME280;19550;42.872;25.494;2023-12-20T01:24:22;96610.84;;;-1.04;100.00
33185;BME280;19550;42.872;25.494;2023-12-20T01:26:50;96610.31;;;-1.18;100.00
33185;BME280;19550;42.872;25.494;2023-12-20T01:29:17;96602.78;;;-1.28;100.00
33185;BME280;19550;42.872;25.494;2023-12-20T01:31:44;96606.63;;;-1.40;100.00
33185;BME280;19550;42.872;25.494;2023-12-20T01:34:11;96600.81;;;-1.44;100.00
33185;BME280;19550;42.872;25.494;2023-12-20T01:36:38;96595.75;;;-1.40;100.00
33185;BME280;19550;42.872;25.494;2023-12-20T01:39:05;96591.56;;;-1.31;100.00
33185;BME280;19550;42.872;25.494;2023-12-20T01:41:32;96594.03;;;-1.30;100.00
33185;BME280;19550;42.872;25.494;2023-12-20T01:44:00;96583.31;;;-1.36;100.00
33185;BME280;19550;42.872;25.494;2023-12-20T01:46:27;96580.50;;;-1.41;100.00
33185;BME280;19550;42.872;25.494;2023-12-20T01:48:54;96562.84;;;-1.39;100.00
33185;BME280;19550;42.872;25.494;2023-12-20T01:51:21;96560.44;;;-1.24;100.00
33185;BME280;19550;42.872;25.494;2023-12-20T01:53:49;96564.09;;;-1.46;100.00
33185;BME280;19550;42.872;25.494;2023-12-20T01:56:16;96556.56;;;-1.28;100.00
33185;BME280;19550;42.872;25.494;2023-12-20T01:58:44;96560.50;;;-1.07;100.00
33185;BME280;19550;42.872;25.494;2023-12-20T02:01:13;96547.63;;;-1.11;100.00
33185;BME280;19550;42.872;25.494;2023-12-20T02:03:40;96543.38;;;-1.07;100.00
33185;BME280;19550;42.872;25.494;2023-12-20T02:06:08;96547.84;;;-1.13;100.00
33185;BME280;19550;42.872;25.494;2023-12-20T02:08:35;96541.31;;;-1.29;100.00
33185;BME280;19550;42.872;25.494;2023-12-20T02:11:03;96531.28;;;-1.28;100.00
33185;BME280;19550;42.872;25.494;2023-12-20T02:13:30;96530.44;;;-1.29;100.00
33185;BME280;19550;42.872;25.494;2023-12-20T02:15:57;96529.13;;;-1.26;100.00
33185;BME280;19550;42.872;25.494;2023-12-20T02:18:26;96516.84;;;-1.29;100.00
33185;BME280;19550;42.872;25.494;2023-12-20T02:20:52;96504.84;;;-1.44;100.00
33185;BME280;19550;42.872;25.494;2023-12-20T02:23:21;96511.88;;;-1.20;100.00
33185;BME280;19550;42.872;25.494;2023-12-20T02:25:48;96501.56;;;-1.46;100.00
33185;BME280;19550;42.872;25.494;2023-12-20T02:28:15;96497.75;;;-1.34;100.00
33185;BME280;19550;42.872;25.494;2023-12-20T02:30:42;96509.63;;;-1.23;100.00
33185;BME280;19550;42.872;25.494;2023-12-20T02:33:10;96497.63;;;-1.39;100.00
33185;BME280;19550;42.872;25.494;2023-12-20T02:35:38;96494.19;;;-1.34;100.00
33185;BME280;19550;42.872;25.494;2023-12-20T02:38:05;96494.50;;;-1.31;100.00
33185;BME280;19550;42.872;25.494;2023-12-20T02:40:33;96487.72;;;-1.16;100.00
33185;BME280;19550;42.872;25.494;2023-12-20T02:43:00;96487.88;;;-1.23;100.00
33185;BME280;19550;42.872;25.494;2023-12-20T02:45:27;96450.84;;;-1.41;100.00
33185;BME280;19550;42.872;25.494;2023-12-20T02:47:54;96483.50;;;-1.24;100.00
33185;BME280;19550;42.872;25.494;2023-12-20T02:50:20;96482.50;;;-1.35;100.00
33185;BME280;19550;42.872;25.494;2023-12-20T02:52:47;96467.78;;;-1.50;100.00
33185;BME280;19550;42.872;25.494;2023-12-20T02:55:14;96465.88;;;-1.50;100.00
33185;BME280;19550;42.872;25.494;2023-12-20T02:57:42;96463.69;;;-1.36;100.00
33185;BME280;19550;42.872;25.494;2023-12-20T03:00:10;96448.16;;;-1.52;100.00
33185;BME280;19550;42.872;25.494;2023-12-20T03:02:37;96458.31;;;-1.48;100.00
33185;BME280;19550;42.872;25.494;2023-12-20T03:05:04;96400.22;;;-1.75;100.00
33185;BME280;19550;42.872;25.494;2023-12-20T03:07:31;96459.53;;;-1.55;100.00
33185;BME280;19550;42.872;25.494;2023-12-20T03:09:58;96452.69;;;-1.58;100.00
33185;BME280;19550;42.872;25.494;2023-12-20T03:12:24;96454.00;;;-1.61;100.00
33185;BME280;19550;42.872;25.494;2023-12-20T03:14:53;96451.84;;;-1.58;100.00
33185;BME280;19550;42.872;25.494;2023-12-20T03:17:19;96394.69;;;-1.80;100.00
33185;BME280;19550;42.872;25.494;2023-12-20T03:19:47;96438.81;;;-1.45;100.00
33185;BME280;19550;42.872;25.494;2023-12-20T03:22:13;96445.66;;;-1.42;100.00
33185;BME280;19550;42.872;25.494;2023-12-20T03:24:40;96441.63;;;-1.40;100.00
33185;BME280;19550;42.872;25.494;2023-12-20T03:27:07;96432.53;;;-1.45;100.00
33185;BME280;19550;42.872;25.494;2023-12-20T03:29:34;96440.38;;;-1.49;100.00
33185;BME280;19550;42.872;25.494;2023-12-20T03:32:02;96422.03;;;-1.70;100.00
33185;BME280;19550;42.872;25.494;2023-12-20T03:34:29;96424.75;;;-1.70;100.00
33185;BME280;19550;42.872;25.494;2023-12-20T03:36:56;96418.63;;;-1.77;100.00
33185;BME280;19550;42.872;25.494;2023-12-20T03:39:23;96413.56;;;-1.57;100.00
33185;BME280;19550;42.872;25.494;2023-12-20T03:41:50;96408.88;;;-1.62;100.00
33185;BME280;19550;42.872;25.494;2023-12-20T03:44:17;96405.56;;;-1.64;100.00
33185;BME280;19550;42.872;25.494;2023-12-20T03:46:43;96408.13;;;-1.74;100.00
33185;BME280;19550;42.872;25.494;2023-12-20T03:49:12;96404.47;;;-1.79;100.00
33185;BME280;19550;42.872;25.494;2023-12-20T03:51:39;96407.81;;;-1.61;100.00
33185;BME280;19550;42.872;25.494;2023-12-20T03:54:07;96400.28;;;-1.70;100.00
33185;BME280;19550;42.872;25.494;2023-12-20T03:56:34;96410.16;;;-1.81;100.00
33185;BME280;19550;42.872;25.494;2023-12-20T03:59:00;96405.50;;;-1.69;100.00
33185;BME280;19550;42.872;25.494;2023-12-20T04:01:27;96390.84;;;-1.68;100.00
33185;BME280;19550;42.872;25.494;2023-12-20T04:03:54;96391.41;;;-1.66;100.00
33185;BME280;19550;42.872;25.494;2023-12-20T04:06:22;96331.31;;;-2.14;100.00
33185;BME280;19550;42.872;25.494;2023-12-20T04:08:49;96390.66;;;-1.78;100.00
33185;BME280;19550;42.872;25.494;2023-12-20T04:11:16;96383.91;;;-1.75;100.00
33185;BME280;19550;42.872;25.494;2023-12-20T04:13:42;96382.25;;;-1.76;100.00
33185;BME280;19550;42.872;25.494;2023-12-20T04:16:09;96380.38;;;-1.59;100.00
33185;BME280;19550;42.872;25.494;2023-12-20T04:18:36;96376.22;;;-1.78;100.00
33185;BME280;19550;42.872;25.494;2023-12-20T04:21:03;96335.25;;;-2.05;100.00
33185;BME280;19550;42.872;25.494;2023-12-20T04:23:32;96373.03;;;-1.75;100.00
33185;BME280;19550;42.872;25.494;2023-12-20T04:25:59;96363.22;;;-1.93;100.00
33185;BME280;19550;42.872;25.494;2023-12-20T04:28:25;96372.38;;;-1.82;100.00
33185;BME280;19550;42.872;25.494;2023-12-20T04:30:55;96369.81;;;-1.72;100.00
33185;BME280;19550;42.872;25.494;2023-12-20T04:33:22;96366.72;;;-1.64;100.00
33185;BME280;19550;42.872;25.494;2023-12-20T04:35:49;96367.84;;;-1.77;100.00
33185;BME280;19550;42.872;25.494;2023-12-20T04:38:16;96367.03;;;-1.77;100.00
33185;BME280;19550;42.872;25.494;2023-12-20T04:40:45;96352.06;;;-1.80;100.00
33185;BME280;19550;42.872;25.494;2023-12-20T04:43:12;96352.84;;;-1.79;100.00
33185;BME280;19550;42.872;25.494;2023-12-20T04:45:38;96322.97;;;-1.96;100.00
33185;BME280;19550;42.872;25.494;2023-12-20T04:48:06;96353.03;;;-1.69;100.00
33185;BME280;19550;42.872;25.494;2023-12-20T04:50:33;96344.91;;;-1.69;100.00
33185;BME280;19550;42.872;25.494;2023-12-20T04:53:00;96362.78;;;-1.73;100.00
33185;BME280;19550;42.872;25.494;2023-12-20T04:55:27;96355.09;;;-1.76;100.00
33185;BME280;19550;42.872;25.494;2023-12-20T04:57:55;96359.41;;;-1.92;100.00
33185;BME280;19550;42.872;25.494;2023-12-20T05:00:22;96353.28;;;-1.87;100.00
33185;BME280;19550;42.872;25.494;2023-12-20T05:02:49;96310.44;;;-2.25;100.00
33185;BME280;19550;42.872;25.494;2023-12-20T05:05:15;96346.34;;;-1.78;100.00
33185;BME280;19550;42.872;25.494;2023-12-20T05:07:43;96331.50;;;-2.04;100.00
33185;BME280;19550;42.872;25.494;2023-12-20T05:10:10;96340.00;;;-2.01;100.00
33185;BME280;19550;42.872;25.494;2023-12-20T05:12:37;96336.06;;;-1.93;100.00
33185;BME280;19550;42.872;25.494;2023-12-20T05:15:07;96338.19;;;-1.78;100.00
33185;BME280;19550;42.872;25.494;2023-12-20T05:17:34;96323.91;;;-1.74;100.00
33185;BME280;19550;42.872;25.494;2023-12-20T05:20:03;96334.19;;;-1.59;100.00
33185;BME280;19550;42.872;25.494;2023-12-20T05:22:30;96315.34;;;-1.66;100.00
33185;BME280;19550;42.872;25.494;2023-12-20T05:24:57;96306.63;;;-1.68;100.00
33185;BME280;19550;42.872;25.494;2023-12-20T05:27:24;96331.03;;;-1.84;100.00
33185;BME280;19550;42.872;25.494;2023-12-20T05:29:52;96328.22;;;-1.89;100.00
33185;BME280;19550;42.872;25.494;2023-12-20T05:32:24;96323.47;;;-1.82;100.00
33185;BME280;19550;42.872;25.494;2023-12-20T05:34:50;96327.34;;;-1.78;100.00
33185;BME280;19550;42.872;25.494;2023-12-20T05:37:18;96316.00;;;-1.75;100.00
33185;BME280;19550;42.872;25.494;2023-12-20T05:39:44;96308.91;;;-1.60;100.00
33185;BME280;19550;42.872;25.494;2023-12-20T05:42:11;96310.66;;;-1.53;100.00
33185;BME280;19550;42.872;25.494;2023-12-20T05:44:38;96308.59;;;-1.63;100.00
33185;BME280;19550;42.872;25.494;2023-12-20T05:47:05;96320.72;;;-1.54;100.00
33185;BME280;19550;42.872;25.494;2023-12-20T05:49:33;96293.88;;;-1.67;100.00
33185;BME280;19550;42.872;25.494;2023-12-20T05:52:00;96267.53;;;-1.67;100.00
33185;BME280;19550;42.872;25.494;2023-12-20T05:54:27;96297.75;;;-1.46;100.00
33185;BME280;19550;42.872;25.494;2023-12-20T05:56:54;96305.06;;;-1.47;100.00
33185;BME280;19550;42.872;25.494;2023-12-20T05:59:21;96286.44;;;-1.38;100.00
33185;BME280;19550;42.872;25.494;2023-12-20T06:01:48;96283.06;;;-1.29;100.00
33185;BME280;19550;42.872;25.494;2023-12-20T06:04:15;96238.38;;;-1.54;100.00
33185;BME280;19550;42.872;25.494;2023-12-20T06:06:43;96235.78;;;-1.44;100.00
33185;BME280;19550;42.872;25.494;2023-12-20T06:09:10;96259.19;;;-1.27;100.00
33185;BME280;19550;42.872;25.494;2023-12-20T06:11:37;96299.69;;;-1.08;100.00
33185;BME280;19550;42.872;25.494;2023-12-20T06:14:04;96245.66;;;-1.22;100.00
33185;BME280;19550;42.872;25.494;2023-12-20T06:16:31;96253.63;;;-1.32;100.00
33185;BME280;19550;42.872;25.494;2023-12-20T06:18:58;96301.34;;;-0.86;100.00
33185;BME280;19550;42.872;25.494;2023-12-20T06:21:25;96293.28;;;-0.97;100.00
33185;BME280;19550;42.872;25.494;2023-12-20T06:23:54;96272.88;;;-1.00;100.00
33185;BME280;19550;42.872;25.494;2023-12-20T06:26:21;96269.41;;;-0.95;100.00
33185;BME280;19550;42.872;25.494;2023-12-20T06:28:48;96291.69;;;-0.55;100.00
33185;BME280;19550;42.872;25.494;2023-12-20T06:31:16;96231.13;;;-0.67;100.00
33185;BME280;19550;42.872;25.494;2023-12-20T06:33:43;96270.91;;;-0.39;100.00
33185;BME280;19550;42.872;25.494;2023-12-20T06:36:11;96260.25;;;-0.19;100.00
33185;BME280;19550;42.872;25.494;2023-12-20T06:38:38;96274.94;;;0.07;100.00
33185;BME280;19550;42.872;25.494;2023-12-20T06:41:10;96219.47;;;-0.14;100.00
33185;BME280;19550;42.872;25.494;2023-12-20T06:43:39;96263.25;;;0.38;100.00
33185;BME280;19550;42.872;25.494;2023-12-20T06:46:06;96262.75;;;0.47;100.00
33185;BME280;19550;42.872;25.494;2023-12-20T06:48:34;96231.69;;;0.48;100.00
33185;BME280;19550;42.872;25.494;2023-12-20T06:51:01;96242.22;;;0.66;100.00
33185;BME280;19550;42.872;25.494;2023-12-20T06:53:28;96269.75;;;1.06;100.00
33185;BME280;19550;42.872;25.494;2023-12-20T06:55:55;96266.00;;;1.17;100.00
33185;BME280;19550;42.872;25.494;2023-12-20T06:58:24;96229.34;;;1.08;100.00
33185;BME280;19550;42.872;25.494;2023-12-20T07:00:51;96247.22;;;1.26;100.00
33185;BME280;19550;42.872;25.494;2023-12-20T07:03:32;96241.47;;;1.28;100.00
33185;BME280;19550;42.872;25.494;2023-12-20T07:05:59;96243.47;;;1.47;100.00
33185;BME280;19550;42.872;25.494;2023-12-20T07:08:26;96251.38;;;1.49;100.00
33185;BME280;19550;42.872;25.494;2023-12-20T07:10:53;96222.66;;;1.36;100.00
33185;BME280;19550;42.872;25.494;2023-12-20T07:13:20;96229.81;;;1.47;100.00
33185;BME280;19550;42.872;25.494;2023-12-20T07:15:49;96251.16;;;1.60;100.00
33185;BME280;19550;42.872;25.494;2023-12-20T07:18:15;96247.06;;;1.58;100.00
33185;BME280;19550;42.872;25.494;2023-12-20T07:20:42;96262.38;;;1.59;100.00
33185;BME280;19550;42.872;25.494;2023-12-20T07:23:09;96196.69;;;1.24;100.00
33185;BME280;19550;42.872;25.494;2023-12-20T07:25:36;96223.31;;;1.58;100.00
33185;BME280;19550;42.872;25.494;2023-12-20T07:28:04;96232.91;;;1.66;100.00
33185;BME280;19550;42.872;25.494;2023-12-20T07:30:31;96254.25;;;1.79;100.00
33185;BME280;19550;42.872;25.494;2023-12-20T07:32:59;96200.44;;;1.85;100.00
33185;BME280;19550;42.872;25.494;2023-12-20T07:35:26;96234.63;;;2.08;100.00
33185;BME280;19550;42.872;25.494;2023-12-20T07:37:53;96234.38;;;2.34;100.00
33185;BME280;19550;42.872;25.494;2023-12-20T07:40:20;96183.22;;;1.99;100.00
33185;BME280;19550;42.872;25.494;2023-12-20T07:42:47;96221.81;;;2.38;100.00
33185;BME280;19550;42.872;25.494;2023-12-20T07:45:14;96195.53;;;2.43;100.00
33185;BME280;19550;42.872;25.494;2023-12-20T07:47:40;96218.22;;;2.84;100.00
33185;BME280;19550;42.872;25.494;2023-12-20T07:50:09;96164.31;;;2.74;100.00
33185;BME280;19550;42.872;25.494;2023-12-20T07:52:36;96224.13;;;3.31;100.00
33185;BME280;19550;42.872;25.494;2023-12-20T07:55:03;96203.31;;;3.20;100.00
33185;BME280;19550;42.872;25.494;2023-12-20T07:57:30;96217.44;;;3.52;100.00
33185;BME280;19550;42.872;25.494;2023-12-20T07:59:57;96213.50;;;3.79;100.00
33185;BME280;19550;42.872;25.494;2023-12-20T08:02:24;96205.19;;;3.94;100.00
33185;BME280;19550;42.872;25.494;2023-12-20T08:04:51;96205.75;;;3.91;100.00
33185;BME280;19550;42.872;25.494;2023-12-20T08:07:19;96203.31;;;3.89;100.00
33185;BME280;19550;42.872;25.494;2023-12-20T08:09:46;96196.31;;;4.07;100.00
33185;BME280;19550;42.872;25.494;2023-12-20T08:12:13;96186.63;;;4.25;100.00
33185;BME280;19550;42.872;25.494;2023-12-20T08:14:40;96185.69;;;4.34;100.00
33185;BME280;19550;42.872;25.494;2023-12-20T08:17:07;96176.03;;;4.42;100.00
33185;BME280;19550;42.872;25.494;2023-12-20T08:19:34;96156.06;;;4.36;100.00
33185;BME280;19550;42.872;25.494;2023-12-20T08:22:01;96192.00;;;4.69;100.00
33185;BME280;19550;42.872;25.494;2023-12-20T08:24:30;96187.53;;;4.78;100.00
33185;BME280;19550;42.872;25.494;2023-12-20T08:26:56;96176.63;;;4.68;100.00
33185;BME280;19550;42.872;25.494;2023-12-20T08:29:23;96138.69;;;4.75;100.00
33185;BME280;19550;42.872;25.494;2023-12-20T08:31:52;96173.41;;;5.13;100.00
33185;BME280;19550;42.872;25.494;2023-12-20T08:34:20;96173.13;;;5.15;100.00
33185;BME280;19550;42.872;25.494;2023-12-20T08:36:47;96162.72;;;5.36;100.00
33185;BME280;19550;42.872;25.494;2023-12-20T08:39:13;96166.06;;;5.33;100.00
33185;BME280;19550;42.872;25.494;2023-12-20T08:41:42;96144.25;;;5.41;100.00
33185;BME280;19550;42.872;25.494;2023-12-20T08:44:09;96147.75;;;5.66;100.00
33185;BME280;19550;42.872;25.494;2023-12-20T08:46:36;96130.97;;;5.86;100.00
33185;BME280;19550;42.872;25.494;2023-12-20T08:49:03;96132.13;;;6.04;100.00
33185;BME280;19550;42.872;25.494;2023-12-20T08:51:30;96104.56;;;5.90;100.00
33185;BME280;19550;42.872;25.494;2023-12-20T08:53:57;96118.75;;;6.16;100.00
33185;BME280;19550;42.872;25.494;2023-12-20T08:56:24;96095.31;;;5.81;100.00
33185;BME280;19550;42.872;25.494;2023-12-20T08:58:52;96103.56;;;5.81;100.00
33185;BME280;19550;42.872;25.494;2023-12-20T09:01:19;96100.66;;;5.72;100.00
33185;BME280;19550;42.872;25.494;2023-12-20T09:03:46;96102.66;;;5.48;100.00
33185;BME280;19550;42.872;25.494;2023-12-20T09:06:13;96089.06;;;5.56;100.00
33185;BME280;19550;42.872;25.494;2023-12-20T09:08:39;96079.19;;;5.74;100.00
33185;BME280;19550;42.872;25.494;2023-12-20T09:11:06;96075.25;;;6.18;100.00
33185;BME280;19550;42.872;25.494;2023-12-20T09:13:33;96049.22;;;6.10;100.00
33185;BME280;19550;42.872;25.494;2023-12-20T09:16:03;96061.16;;;6.19;100.00
33185;BME280;19550;42.872;25.494;2023-12-20T09:18:30;96048.88;;;6.30;100.00
33185;BME280;19550;42.872;25.494;2023-12-20T09:20:56;96013.16;;;6.25;100.00
33185;BME280;19550;42.872;25.494;2023-12-20T09:23:23;96045.97;;;6.68;100.00
33185;BME280;19550;42.872;25.494;2023-12-20T09:25:50;96030.56;;;6.67;100.00
33185;BME280;19550;42.872;25.494;2023-12-20T09:28:17;96019.34;;;6.63;100.00
33185;BME280;19550;42.872;25.494;2023-12-20T09:30:44;96038.84;;;6.94;100.00
33185;BME280;19550;42.872;25.494;2023-12-20T09:33:13;96034.75;;;6.92;100.00
33185;BME280;19550;42.872;25.494;2023-12-20T09:35:40;96025.78;;;6.86;100.00
33185;BME280;19550;42.872;25.494;2023-12-20T09:38:06;96005.78;;;6.94;100.00
33185;BME280;19550;42.872;25.494;2023-12-20T09:40:34;96032.09;;;7.00;100.00
33185;BME280;19550;42.872;25.494;2023-12-20T09:43:04;96009.03;;;7.10;100.00
33185;BME280;19550;42.872;25.494;2023-12-20T09:45:32;95991.84;;;7.27;100.00
33185;BME280;19550;42.872;25.494;2023-12-20T09:48:00;96003.91;;;7.31;100.00
33185;BME280;19550;42.872;25.494;2023-12-20T09:50:31;96000.34;;;7.16;100.00
33185;BME280;19550;42.872;25.494;2023-12-20T09:53:01;96000.69;;;7.51;100.00
33185;BME280;19550;42.872;25.494;2023-12-20T09:55:30;95956.38;;;7.47;100.00
33185;BME280;19550;42.872;25.494;2023-12-20T09:57:59;95991.63;;;7.95;100.00
33185;BME280;19550;42.872;25.494;2023-12-20T10:00:26;95978.50;;;7.78;100.00
33185;BME280;19550;42.872;25.494;2023-12-20T10:02:57;95952.75;;;7.83;100.00
33185;BME280;19550;42.872;25.494;2023-12-20T10:05:26;95963.00;;;8.13;100.00
33185;BME280;19550;42.872;25.494;2023-12-20T10:07:55;95969.50;;;8.31;100.00
33185;BME280;19550;42.872;25.494;2023-12-20T10:10:22;95957.91;;;8.29;100.00
33185;BME280;19550;42.872;25.494;2023-12-20T10:13:01;95956.97;;;8.33;100.00
33185;BME280;19550;42.872;25.494;2023-12-20T10:15:28;95953.66;;;8.23;100.00
33185;BME280;19550;42.872;25.494;2023-12-20T10:17:55;95911.75;;;7.90;100.00
33185;BME280;19550;42.872;25.494;2023-12-20T10:20:22;95919.66;;;7.83;100.00
33185;BME280;19550;42.872;25.494;2023-12-20T10:22:49;95916.03;;;8.05;100.00
33185;BME280;19550;42.872;25.494;2023-12-20T10:25:20;95891.13;;;8.27;100.00
33185;BME280;19550;42.872;25.494;2023-12-20T10:27:47;95896.53;;;8.32;100.00
33185;BME280;19550;42.872;25.494;2023-12-20T10:30:14;95903.78;;;8.59;100.00
33185;BME280;19550;42.872;25.494;2023-12-20T10:32:41;95893.94;;;8.75;100.00
33185;BME280;19550;42.872;25.494;2023-12-20T10:35:08;95868.47;;;8.38;99.82
33185;BME280;19550;42.872;25.494;2023-12-20T10:37:36;95900.19;;;8.50;100.00
33185;BME280;19550;42.872;25.494;2023-12-20T10:40:04;95893.91;;;8.27;100.00
33185;BME280;19550;42.872;25.494;2023-12-20T10:42:33;95846.06;;;7.47;100.00
33185;BME280;19550;42.872;25.494;2023-12-20T10:45:03;95865.88;;;7.49;100.00
33185;BME280;19550;42.872;25.494;2023-12-20T10:47:31;95874.31;;;7.53;100.00
33185;BME280;19550;42.872;25.494;2023-12-20T10:49:59;95877.41;;;7.29;100.00
33185;BME280;19550;42.872;25.494;2023-12-20T10:52:27;95838.41;;;7.00;100.00
33185;BME280;19550;42.872;25.494;2023-12-20T10:54:56;95882.03;;;6.98;100.00
33185;BME280;19550;42.872;25.494;2023-12-20T10:57:23;95861.31;;;6.87;100.00
33185;BME280;19550;42.872;25.494;2023-12-20T10:59:55;95865.91;;;6.91;100.00
33185;BME280;19550;42.872;25.494;2023-12-20T11:02:22;95871.94;;;6.79;100.00
33185;BME280;19550;42.872;25.494;2023-12-20T11:04:55;95874.72;;;6.66;100.00
33185;BME280;19550;42.872;25.494;2023-12-20T11:07:29;95876.75;;;6.74;100.00
33185;BME280;19550;42.872;25.494;2023-12-20T11:10:08;95868.22;;;6.48;100.00
33185;BME280;19550;42.872;25.494;2023-12-20T11:12:43;95863.72;;;6.52;100.00
33185;BME280;19550;42.872;25.494;2023-12-20T11:15:15;95871.88;;;6.71;100.00
33185;BME280;19550;42.872;25.494;2023-12-20T11:17:44;95868.78;;;6.72;100.00
33185;BME280;19550;42.872;25.494;2023-12-20T11:20:11;95863.88;;;6.83;100.00
33185;BME280;19550;42.872;25.494;2023-12-20T11:22:40;95865.75;;;6.74;100.00
33185;BME280;19550;42.872;25.494;2023-12-20T11:25:18;95866.84;;;6.73;100.00
33185;BME280;19550;42.872;25.494;2023-12-20T11:27:43;95846.38;;;6.65;100.00
33185;BME280;19550;42.872;25.494;2023-12-20T11:30:12;95854.53;;;6.70;100.00
33185;BME280;19550;42.872;25.494;2023-12-20T11:32:42;95838.50;;;6.72;100.00
33185;BME280;19550;42.872;25.494;2023-12-20T11:35:19;95848.31;;;7.01;100.00
33185;BME280;19550;42.872;25.494;2023-12-20T11:37:46;95851.00;;;6.92;100.00
33185;BME280;19550;42.872;25.494;2023-12-20T11:40:15;95829.63;;;6.75;100.00
33185;BME280;19550;42.872;25.494;2023-12-20T11:42:44;95823.53;;;6.65;100.00
33185;BME280;19550;42.872;25.494;2023-12-20T11:45:13;95795.13;;;6.56;100.00
33185;BME280;19550;42.872;25.494;2023-12-20T11:47:43;95796.66;;;6.48;100.00
33185;BME280;19550;42.872;25.494;2023-12-20T11:50:10;95778.56;;;6.20;100.00
33185;BME280;19550;42.872;25.494;2023-12-20T11:52:37;95820.63;;;6.48;100.00
33185;BME280;19550;42.872;25.494;2023-12-20T11:55:05;95816.88;;;6.44;100.00
33185;BME280;19550;42.872;25.494;2023-12-20T11:57:32;95784.59;;;6.22;100.00
33185;BME280;19550;42.872;25.494;2023-12-20T11:59:59;95798.00;;;6.51;100.00
33185;BME280;19550;42.872;25.494;2023-12-20T12:02:26;95785.78;;;6.43;100.00
33185;BME280;19550;42.872;25.494;2023-12-20T12:04:54;95799.50;;;6.57;100.00
33185;BME280;19550;42.872;25.494;2023-12-20T12:07:22;95786.56;;;6.79;100.00
33185;BME280;19550;42.872;25.494;2023-12-20T12:09:48;95783.97;;;6.97;100.00
33185;BME280;19550;42.872;25.494;2023-12-20T12:12:16;95776.06;;;7.04;100.00
33185;BME280;19550;42.872;25.494;2023-12-20T12:14:44;95772.06;;;7.10;100.00
33185;BME280;19550;42.872;25.494;2023-12-20T12:17:11;95785.84;;;7.10;100.00
33185;BME280;19550;42.872;25.494;2023-12-20T12:19:39;95774.91;;;7.05;100.00
33185;BME280;19550;42.872;25.494;2023-12-20T12:22:09;95759.72;;;7.38;100.00
33185;BME280;19550;42.872;25.494;2023-12-20T12:24:39;95766.94;;;7.48;100.00
33185;BME280;19550;42.872;25.494;2023-12-20T12:27:06;95757.28;;;7.68;100.00
33185;BME280;19550;42.872;25.494;2023-12-20T12:29:33;95755.84;;;7.39;100.00
33185;BME280;19550;42.872;25.494;2023-12-20T12:32:00;95726.03;;;7.10;100.00
33185;BME280;19550;42.872;25.494;2023-12-20T12:34:27;95745.13;;;7.07;100.00
33185;BME280;19550;42.872;25.494;2023-12-20T12:36:54;95694.94;;;7.18;99.90
33185;BME280;19550;42.872;25.494;2023-12-20T12:39:23;95728.84;;;7.58;98.49
33185;BME280;19550;42.872;25.494;2023-12-20T12:41:50;95738.19;;;7.40;99.98
33185;BME280;19550;42.872;25.494;2023-12-20T12:44:17;95732.75;;;7.27;100.00
33185;BME280;19550;42.872;25.494;2023-12-20T12:46:44;95728.97;;;7.14;100.00